createdAt,value
2018-07-29T00:01:54.267Z,21.60
2018-07-29T00:04:30.774Z,21.60
2018-07-29T00:07:07.279Z,21.60
2018-07-29T00:09:43.541Z,21.40
2018-07-29T00:12:19.952Z,21.40
2018-07-29T00:14:56.332Z,21.40
2018-07-29T00:17:32.976Z,21.40
2018-07-29T00:20:10.788Z,21.30
2018-07-29T00:22:47.128Z,21.20
2018-07-29T00:25:23.456Z,21.20
2018-07-29T00:27:59.918Z,21.20
2018-07-29T00:30:36.300Z,21.10
2018-07-29T00:33:12.712Z,21.10
2018-07-29T00:35:49.059Z,21.10
2018-07-29T00:38:25.262Z,21.00
2018-07-29T00:41:01.884Z,20.90
2018-07-29T00:43:38.163Z,20.90
2018-07-29T00:46:14.598Z,20.90
2018-07-29T00:48:50.826Z,21.00
2018-07-29T00:51:27.157Z,21.00
2018-07-29T00:54:03.742Z,21.00
2018-07-29T00:56:40.133Z,21.00
2018-07-29T00:59:16.435Z,21.00
2018-07-29T01:01:52.783Z,20.90
2018-07-29T01:04:29.336Z,20.80
2018-07-29T01:07:05.742Z,20.80
2018-07-29T01:09:42.213Z,20.80
2018-07-29T01:12:18.471Z,20.80
2018-07-29T01:14:54.923Z,20.80
2018-07-29T01:17:31.635Z,20.80
2018-07-29T01:20:07.804Z,20.70
2018-07-29T01:22:44.342Z,20.70
2018-07-29T01:25:20.755Z,20.70
2018-07-29T01:27:57.257Z,20.70
2018-07-29T01:30:33.785Z,20.70
2018-07-29T01:33:10.103Z,20.70
2018-07-29T01:35:46.408Z,20.70
2018-07-29T01:38:22.823Z,20.70
2018-07-29T01:40:59.359Z,20.60
2018-07-29T01:43:35.817Z,20.50
2018-07-29T01:46:12.222Z,20.40
2018-07-29T01:48:48.894Z,20.40
2018-07-29T01:51:25.018Z,20.30
2018-07-29T01:54:01.485Z,20.30
2018-07-29T01:56:37.836Z,20.30
2018-07-29T01:59:14.113Z,20.30
2018-07-29T02:01:50.535Z,20.30
2018-07-29T02:04:27.006Z,20.30
2018-07-29T02:07:03.351Z,20.30
2018-07-29T02:09:39.891Z,20.20
2018-07-29T02:12:16.255Z,20.20
2018-07-29T02:14:52.495Z,20.20
2018-07-29T02:17:29.029Z,20.20
2018-07-29T02:20:05.355Z,20.20
2018-07-29T02:25:17.711Z,20.20
2018-07-29T02:27:54.166Z,20.20
2018-07-29T02:30:30.692Z,20.20
2018-07-29T02:33:07.144Z,20.20
2018-07-29T02:35:43.660Z,20.20
2018-07-29T02:38:20.176Z,20.10
2018-07-29T02:40:56.536Z,20.00
2018-07-29T02:43:33.016Z,20.00
2018-07-29T02:46:09.365Z,20.00
2018-07-29T02:48:46.024Z,19.90
2018-07-29T02:51:22.351Z,19.90
2018-07-29T02:53:58.915Z,19.90
2018-07-29T02:56:35.280Z,19.90
2018-07-29T02:59:11.862Z,19.90
2018-07-29T03:01:48.220Z,20.00
2018-07-29T03:04:24.610Z,19.90
2018-07-29T03:07:00.971Z,19.90
2018-07-29T03:09:37.347Z,19.90
2018-07-29T03:12:13.935Z,19.80
2018-07-29T03:14:50.399Z,19.80
2018-07-29T03:17:26.784Z,19.70
2018-07-29T03:20:03.289Z,19.70
2018-07-29T03:22:39.564Z,19.60
2018-07-29T03:25:15.944Z,19.60
2018-07-29T03:27:52.384Z,19.60
2018-07-29T03:30:29.018Z,19.50
2018-07-29T03:33:05.416Z,19.60
2018-07-29T03:35:42.014Z,19.60
2018-07-29T03:38:18.439Z,19.60
2018-07-29T03:40:54.819Z,19.60
2018-07-29T03:43:31.214Z,19.60
2018-07-29T03:46:07.739Z,19.60
2018-07-29T03:48:44.293Z,19.60
2018-07-29T03:51:20.571Z,19.60
2018-07-29T03:53:57.064Z,19.50
2018-07-29T03:56:33.457Z,19.50
2018-07-29T03:59:09.997Z,19.50
2018-07-29T04:01:46.419Z,19.50
2018-07-29T04:04:22.735Z,19.50
2018-07-29T04:06:59.196Z,19.50
2018-07-29T04:09:35.554Z,19.50
2018-07-29T04:12:12.146Z,19.50
2018-07-29T04:14:48.630Z,19.50
2018-07-29T04:17:25.074Z,19.50
2018-07-29T04:20:01.486Z,19.40
2018-07-29T04:22:38.011Z,19.40
2018-07-29T04:25:14.272Z,19.50
2018-07-29T04:27:50.656Z,19.40
2018-07-29T04:30:27.172Z,19.50
2018-07-29T04:33:03.400Z,19.50
2018-07-29T04:35:39.855Z,19.50
2018-07-29T04:38:16.063Z,19.60
2018-07-29T04:40:52.525Z,19.10
2018-07-29T04:43:29.056Z,19.70
2018-07-29T04:46:05.423Z,19.70
2018-07-29T04:48:41.647Z,19.80
2018-07-29T04:51:18.235Z,19.80
2018-07-29T04:53:54.475Z,19.90
2018-07-29T04:56:30.895Z,20.00
2018-07-29T04:59:07.292Z,20.00
2018-07-29T05:01:43.749Z,20.10
2018-07-29T05:04:20.151Z,20.00
2018-07-29T05:06:56.691Z,20.10
2018-07-29T05:09:33.206Z,20.10
2018-07-29T05:12:10.615Z,20.10
2018-07-29T05:14:47.075Z,20.10
2018-07-29T05:17:23.688Z,20.10
2018-07-29T05:20:00.408Z,20.10
2018-07-29T05:22:36.799Z,20.20
2018-07-29T05:25:13.261Z,20.30
2018-07-29T05:27:49.430Z,20.40
2018-07-29T05:30:25.992Z,20.40
2018-07-29T05:33:02.454Z,20.50
2018-07-29T05:35:38.988Z,20.60
2018-07-29T05:38:15.475Z,20.70
2018-07-29T05:40:51.790Z,20.90
2018-07-29T05:43:28.036Z,21.10
2018-07-29T05:46:04.651Z,21.30
2018-07-29T05:48:41.056Z,21.60
2018-07-29T05:51:17.645Z,21.90
2018-07-29T05:53:54.835Z,22.20
2018-07-29T05:56:31.056Z,22.70
2018-07-29T05:59:07.671Z,23.00
2018-07-29T06:01:44.102Z,22.90
2018-07-29T06:04:20.502Z,22.80
2018-07-29T06:06:57.077Z,22.90
2018-07-29T06:09:33.255Z,22.80
2018-07-29T06:12:09.766Z,22.80
2018-07-29T06:14:46.123Z,22.80
2018-07-29T06:17:22.588Z,22.90
2018-07-29T06:19:59.029Z,23.10
2018-07-29T06:22:35.479Z,23.30
2018-07-29T06:25:11.836Z,23.40
2018-07-29T06:27:49.254Z,23.50
2018-07-29T06:30:25.595Z,23.50
2018-07-29T06:33:02.058Z,23.70
2018-07-29T06:35:38.623Z,23.80
2018-07-29T06:38:14.907Z,23.80
2018-07-29T06:40:51.330Z,23.90
2018-07-29T06:43:27.702Z,23.70
2018-07-29T06:46:04.173Z,23.70
2018-07-29T06:48:40.492Z,23.80
2018-07-29T06:51:16.733Z,23.90
2018-07-29T06:53:53.082Z,23.90
2018-07-29T06:56:29.600Z,23.60
2018-07-29T06:59:05.802Z,23.40
2018-07-29T07:01:42.320Z,23.50
2018-07-29T07:04:18.717Z,23.60
2018-07-29T07:06:55.093Z,23.70
2018-07-29T07:09:31.505Z,24.00
2018-07-29T07:12:07.835Z,24.00
2018-07-29T07:14:43.995Z,23.90
2018-07-29T07:17:20.384Z,24.00
2018-07-29T07:19:56.659Z,24.10
2018-07-29T07:22:33.131Z,24.20
2018-07-29T07:25:09.515Z,24.20
2018-07-29T07:27:45.923Z,24.30
2018-07-29T07:30:22.332Z,24.30
2018-07-29T07:32:58.773Z,24.40
2018-07-29T07:35:35.092Z,24.20
2018-07-29T07:38:11.577Z,23.90
2018-07-29T07:40:48.027Z,23.90
2018-07-29T07:43:24.201Z,24.30
2018-07-29T07:46:00.814Z,24.60
2018-07-29T07:48:37.003Z,24.70
2018-07-29T07:51:13.284Z,24.60
2018-07-29T07:53:49.660Z,24.30
2018-07-29T07:56:26.010Z,24.50
2018-07-29T07:59:02.306Z,24.80
2018-07-29T08:01:38.646Z,25.10
2018-07-29T08:04:14.947Z,25.20
2018-07-29T08:06:51.325Z,25.30
2018-07-29T08:09:27.578Z,25.50
2018-07-29T08:12:03.923Z,25.40
2018-07-29T08:14:40.251Z,25.40
2018-07-29T08:17:16.579Z,25.50
2018-07-29T08:19:52.901Z,25.50
2018-07-29T08:22:35.569Z,24.90
2018-07-29T08:25:12.005Z,25.00
2018-07-29T08:27:48.558Z,25.20
2018-07-29T08:30:24.750Z,25.10
2018-07-29T08:33:01.280Z,25.40
2018-07-29T08:35:37.552Z,25.60
2018-07-29T08:38:13.834Z,26.00
2018-07-29T08:40:50.128Z,25.70
2018-07-29T08:43:30.060Z,25.90
2018-07-29T08:46:06.903Z,26.40
2018-07-29T08:48:43.469Z,26.60
2018-07-29T08:51:19.759Z,26.90
2018-07-29T08:53:57.041Z,27.60
2018-07-29T08:56:33.653Z,28.10
2018-07-29T08:59:09.889Z,28.30
2018-07-29T09:01:46.325Z,28.80
2018-07-29T09:04:22.630Z,29.40
2018-07-29T09:06:59.171Z,29.50
2018-07-29T09:09:35.568Z,29.70
2018-07-29T09:12:11.923Z,29.70
2018-07-29T09:14:48.277Z,29.60
2018-07-29T09:17:24.671Z,29.50
2018-07-29T09:20:01.260Z,29.60
2018-07-29T09:22:37.604Z,29.80
2018-07-29T09:25:13.935Z,29.40
2018-07-29T09:27:50.412Z,28.30
2018-07-29T09:30:27.361Z,28.10
2018-07-29T09:33:03.685Z,28.60
2018-07-29T09:35:40.276Z,28.70
2018-07-29T09:38:18.345Z,29.50
2018-07-29T09:40:56.505Z,30.00
2018-07-29T09:43:33.019Z,30.20
2018-07-29T09:46:09.721Z,29.80
2018-07-29T09:48:46.660Z,30.30
2018-07-29T09:51:23.931Z,29.90
2018-07-29T09:54:00.996Z,29.50
2018-07-29T09:56:37.715Z,29.00
2018-07-29T09:59:14.602Z,29.00
2018-07-29T10:01:51.229Z,29.40
2018-07-29T10:04:28.219Z,29.50
2018-07-29T10:07:05.276Z,29.60
2018-07-29T10:09:41.651Z,29.50
2018-07-29T10:12:18.213Z,29.10
2018-07-29T10:14:54.716Z,29.40
2018-07-29T10:17:31.565Z,29.00
2018-07-29T10:20:08.305Z,28.40
2018-07-29T10:22:44.910Z,28.50
2018-07-29T10:25:25.425Z,28.10
2018-07-29T10:28:02.499Z,27.90
2018-07-29T10:30:38.967Z,28.50
2018-07-29T10:33:15.213Z,28.90
2018-07-29T10:35:51.679Z,28.60
2018-07-29T10:38:28.174Z,28.40
2018-07-29T10:41:04.535Z,28.60
2018-07-29T10:43:40.762Z,28.70
2018-07-29T10:46:17.089Z,28.50
2018-07-29T10:48:53.492Z,28.70
2018-07-29T10:51:30.085Z,28.60
2018-07-29T10:54:06.502Z,28.80
2018-07-29T10:56:42.833Z,29.50
2018-07-29T10:59:19.280Z,29.40
2018-07-29T11:01:55.666Z,29.20
2018-07-29T11:04:32.239Z,29.20
2018-07-29T11:07:08.620Z,29.40
2018-07-29T11:09:45.319Z,29.40
2018-07-29T11:12:21.688Z,29.00
2018-07-29T11:14:58.282Z,28.80
2018-07-29T11:17:34.629Z,28.90
2018-07-29T11:20:11.022Z,29.00
2018-07-29T11:22:47.498Z,29.20
2018-07-29T11:25:24.056Z,29.30
2018-07-29T11:28:00.667Z,29.00
2018-07-29T11:30:36.887Z,28.90
2018-07-29T11:33:13.258Z,29.20
2018-07-29T11:35:49.723Z,29.30
2018-07-29T11:38:26.147Z,29.50
2018-07-29T11:41:02.512Z,29.70
2018-07-29T11:43:38.973Z,29.70
2018-07-29T11:46:15.316Z,29.90
2018-07-29T11:48:51.596Z,30.40
2018-07-29T11:51:28.015Z,30.50
2018-07-29T11:54:05.435Z,30.20
2018-07-29T11:56:41.652Z,29.80
2018-07-29T11:59:18.063Z,29.90
2018-07-29T12:01:54.484Z,29.70
2018-07-29T12:04:31.047Z,29.60
2018-07-29T12:07:07.298Z,29.70
2018-07-29T12:09:43.575Z,30.10
2018-07-29T12:12:19.935Z,30.20
2018-07-29T12:14:56.505Z,30.20
2018-07-29T12:17:33.129Z,30.10
2018-07-29T12:20:09.589Z,30.10
2018-07-29T12:22:46.023Z,30.20
2018-07-29T12:25:22.171Z,30.30
2018-07-29T12:27:58.541Z,30.40
2018-07-29T12:30:34.884Z,30.50
2018-07-29T12:33:11.142Z,30.70
2018-07-29T12:35:47.543Z,30.70
2018-07-29T12:38:24.033Z,30.30
2018-07-29T12:41:00.578Z,30.60
2018-07-29T12:43:37.109Z,30.90
2018-07-29T12:46:13.706Z,30.80
2018-07-29T12:48:50.051Z,30.50
2018-07-29T12:51:26.482Z,30.40
2018-07-29T12:54:03.025Z,30.20
2018-07-29T12:56:39.300Z,30.30
2018-07-29T12:59:15.682Z,30.70
2018-07-29T13:01:51.942Z,30.80
2018-07-29T13:04:28.274Z,31.00
2018-07-29T13:07:04.648Z,31.10
2018-07-29T13:09:40.883Z,31.20
2018-07-29T13:12:19.388Z,31.40
2018-07-29T13:14:55.847Z,31.20
2018-07-29T13:17:32.469Z,31.20
2018-07-29T13:20:09.027Z,31.40
2018-07-29T13:22:45.328Z,31.20
2018-07-29T13:25:21.795Z,31.00
2018-07-29T13:27:58.950Z,30.70
2018-07-29T13:30:35.300Z,30.30
2018-07-29T13:33:11.633Z,30.50
2018-07-29T13:35:48.314Z,30.50
2018-07-29T13:38:24.535Z,30.40
2018-07-29T13:41:01.131Z,30.20
2018-07-29T13:43:37.603Z,30.30
2018-07-29T13:46:13.861Z,30.40
2018-07-29T13:48:50.339Z,30.20
2018-07-29T13:51:26.564Z,30.10
2018-07-29T13:54:03.056Z,30.10
2018-07-29T13:56:39.544Z,30.20
2018-07-29T13:59:16.041Z,30.20
2018-07-29T14:01:52.459Z,30.30
2018-07-29T14:04:28.952Z,30.20
2018-07-29T14:07:06.407Z,30.30
2018-07-29T14:09:42.758Z,30.20
2018-07-29T14:12:19.061Z,30.20
2018-07-29T14:14:55.331Z,30.40
2018-07-29T14:17:31.709Z,30.50
2018-07-29T14:20:08.303Z,30.40
2018-07-29T14:22:44.744Z,30.40
2018-07-29T14:25:21.226Z,30.50
2018-07-29T14:27:57.676Z,30.50
2018-07-29T14:30:34.106Z,30.50
2018-07-29T14:33:10.539Z,30.50
2018-07-29T14:35:47.052Z,30.30
2018-07-29T14:38:23.412Z,30.20
2018-07-29T14:40:59.948Z,30.30
2018-07-29T14:43:36.327Z,30.20
2018-07-29T14:46:12.882Z,30.20
2018-07-29T14:48:49.321Z,30.30
2018-07-29T14:51:25.773Z,30.20
2018-07-29T14:54:02.403Z,30.20
2018-07-29T14:56:38.701Z,30.00
2018-07-29T14:59:14.958Z,30.00
2018-07-29T15:01:51.492Z,30.20
2018-07-29T15:04:27.896Z,30.20
2018-07-29T15:07:04.379Z,30.20
2018-07-29T15:09:40.622Z,30.20
2018-07-29T15:12:17.129Z,30.20
2018-07-29T15:14:53.451Z,30.20
2018-07-29T15:17:30.324Z,30.20
2018-07-29T15:20:06.819Z,30.30
2018-07-29T15:22:43.233Z,30.20
2018-07-29T15:25:19.624Z,30.30
2018-07-29T15:27:57.064Z,30.30
2018-07-29T15:30:33.377Z,30.10
2018-07-29T15:33:09.779Z,30.20
2018-07-29T15:35:46.082Z,30.20
2018-07-29T15:38:22.574Z,30.50
2018-07-29T15:40:58.973Z,30.60
2018-07-29T15:43:35.280Z,30.50
2018-07-29T15:46:11.587Z,30.30
2018-07-29T15:48:48.346Z,30.20
2018-07-29T15:51:24.701Z,30.30
2018-07-29T15:54:01.199Z,30.20
2018-07-29T15:56:37.391Z,30.20
2018-07-29T15:59:13.764Z,30.20
2018-07-29T16:01:50.723Z,30.30
2018-07-29T16:04:27.088Z,30.20
2018-07-29T16:07:03.786Z,30.10
2018-07-29T16:09:40.009Z,30.10
2018-07-29T16:12:16.496Z,30.00
2018-07-29T16:14:52.827Z,30.00
2018-07-29T16:17:29.359Z,30.10
2018-07-29T16:20:06.028Z,30.10
2018-07-29T16:22:42.270Z,30.20
2018-07-29T16:25:18.470Z,30.20
2018-07-29T16:27:54.901Z,30.20
2018-07-29T16:30:31.428Z,30.30
2018-07-29T16:33:07.805Z,30.30
2018-07-29T16:35:44.183Z,30.30
2018-07-29T16:38:20.762Z,30.30
2018-07-29T16:40:57.036Z,30.30
2018-07-29T16:43:33.556Z,30.40
2018-07-29T16:46:10.041Z,30.40
2018-07-29T16:48:46.668Z,30.20
2018-07-29T16:51:23.100Z,30.30
2018-07-29T16:53:59.801Z,30.20
2018-07-29T16:56:36.250Z,30.20
2018-07-29T16:59:12.652Z,30.00
2018-07-29T17:01:49.009Z,29.90
2018-07-29T17:04:25.564Z,29.80
2018-07-29T17:07:02.138Z,29.70
2018-07-29T17:09:41.445Z,29.60
2018-07-29T17:12:18.874Z,29.60
2018-07-29T17:14:55.340Z,29.70
2018-07-29T17:17:31.958Z,29.70
2018-07-29T17:20:08.227Z,29.70
2018-07-29T17:22:44.597Z,29.70
2018-07-29T17:25:20.936Z,29.60
2018-07-29T17:27:57.368Z,29.60
2018-07-29T17:30:33.859Z,29.50
2018-07-29T17:33:10.325Z,29.60
2018-07-29T17:35:46.560Z,29.50
2018-07-29T17:38:23.138Z,29.40
2018-07-29T17:40:59.512Z,29.40
2018-07-29T17:43:36.003Z,29.60
2018-07-29T17:46:12.279Z,29.40
2018-07-29T17:48:48.958Z,29.40
2018-07-29T17:51:25.539Z,29.40
2018-07-29T17:54:05.888Z,29.40
2018-07-29T17:56:44.301Z,29.40
2018-07-29T17:59:20.737Z,29.30
2018-07-29T18:01:57.213Z,29.40
2018-07-29T18:04:33.637Z,29.30
2018-07-29T18:07:09.927Z,29.30
2018-07-29T18:09:46.348Z,29.20
2018-07-29T18:12:23.023Z,29.20
2018-07-29T18:14:59.785Z,29.30
2018-07-29T18:17:36.231Z,29.20
2018-07-29T18:20:12.736Z,29.20
2018-07-29T18:22:49.051Z,29.20
2018-07-29T18:25:25.407Z,29.10
2018-07-29T18:28:02.213Z,29.00
2018-07-29T18:30:38.607Z,29.00
2018-07-29T18:33:14.995Z,29.00
2018-07-29T18:35:51.830Z,29.00
2018-07-29T18:38:33.185Z,28.90
2018-07-29T18:41:10.542Z,28.80
2018-07-29T18:43:47.140Z,28.80
2018-07-29T18:46:23.470Z,28.70
2018-07-29T18:49:00.752Z,28.60
2018-07-29T18:51:37.355Z,28.60
2018-07-29T18:54:13.752Z,28.50
2018-07-29T18:56:50.045Z,28.40
2018-07-29T18:59:26.394Z,28.40
2018-07-29T19:02:03.000Z,28.30
2018-07-29T19:04:39.273Z,28.30
2018-07-29T19:07:15.791Z,28.10
2018-07-29T19:09:52.383Z,28.10
2018-07-29T19:12:29.992Z,28.00
2018-07-29T19:15:06.464Z,27.90
2018-07-29T19:17:42.727Z,27.80
2018-07-29T19:20:19.025Z,27.70
2018-07-29T19:22:55.407Z,27.60
2018-07-29T19:25:31.926Z,27.50
2018-07-29T19:28:08.532Z,27.40
2018-07-29T19:30:44.884Z,27.30
2018-07-29T19:33:22.920Z,27.20
2018-07-29T19:35:59.260Z,27.10
2018-07-29T19:38:35.562Z,27.00
2018-07-29T19:41:12.060Z,26.90
2018-07-29T19:43:48.537Z,26.80
2018-07-29T19:46:24.918Z,26.70
2018-07-29T19:49:01.482Z,26.70
2018-07-29T19:51:37.811Z,26.60
2018-07-29T19:54:14.188Z,26.50
2018-07-29T19:56:50.612Z,26.40
2018-07-29T19:59:27.047Z,26.30
2018-07-29T20:02:03.421Z,26.00
2018-07-29T20:04:39.764Z,26.20
2018-07-29T20:07:16.203Z,26.20
2018-07-29T20:09:52.596Z,26.10
2018-07-29T20:12:29.158Z,26.20
2018-07-29T20:15:05.482Z,26.00
2018-07-29T20:17:41.747Z,26.00
2018-07-29T20:20:18.327Z,25.90
2018-07-29T20:22:54.683Z,25.90
2018-07-29T20:25:31.307Z,25.90
2018-07-29T20:28:08.073Z,25.90
2018-07-29T20:30:44.554Z,25.80
2018-07-29T20:33:20.913Z,25.80
2018-07-29T20:35:57.370Z,25.70
2018-07-29T20:38:33.996Z,25.70
2018-07-29T20:41:10.491Z,25.60
2018-07-29T20:43:46.900Z,25.50
2018-07-29T20:46:23.263Z,25.40
2018-07-29T20:49:00.356Z,25.30
2018-07-29T20:51:36.743Z,25.30
2018-07-29T20:54:12.988Z,25.20
2018-07-29T20:56:49.343Z,25.20
2018-07-29T20:59:25.656Z,25.10
2018-07-29T21:02:02.331Z,25.00
2018-07-29T21:04:38.532Z,25.90
2018-07-29T21:07:15.057Z,24.90
2018-07-29T21:09:51.607Z,24.90
2018-07-29T21:12:28.429Z,24.80
2018-07-29T21:15:04.967Z,24.80
2018-07-29T21:17:41.284Z,24.70
2018-07-29T21:20:17.676Z,24.60
2018-07-29T21:22:54.132Z,24.50
2018-07-29T21:25:30.692Z,24.40
2018-07-29T21:28:07.678Z,24.30
2018-07-29T21:30:43.850Z,24.30
2018-07-29T21:33:20.324Z,24.30
2018-07-29T21:35:57.253Z,24.20
2018-07-29T21:38:33.845Z,24.20
2018-07-29T21:41:10.265Z,24.20
2018-07-29T21:43:46.697Z,24.20
2018-07-29T21:46:22.979Z,24.10
2018-07-29T21:48:59.851Z,24.00
2018-07-29T21:51:36.954Z,23.90
2018-07-29T21:54:15.399Z,23.80
2018-07-29T21:56:51.873Z,23.80
2018-07-29T21:59:28.846Z,23.70
2018-07-29T22:02:05.545Z,23.70
2018-07-29T22:04:42.161Z,23.60
2018-07-29T22:07:18.597Z,23.60
2018-07-29T22:09:55.241Z,23.50
2018-07-29T22:12:31.571Z,23.50
2018-07-29T22:15:08.856Z,23.50
2018-07-29T22:17:45.281Z,23.50
2018-07-29T22:20:22.149Z,23.40
2018-07-29T22:22:58.522Z,23.40
2018-07-29T22:25:39.944Z,23.50
2018-07-29T22:28:21.475Z,23.30
2018-07-29T22:31:03.223Z,23.30
2018-07-29T22:33:39.444Z,23.30
2018-07-29T22:36:15.919Z,23.30
2018-07-29T22:38:52.454Z,23.20
2018-07-29T22:41:29.224Z,23.20
2018-07-29T22:44:05.673Z,23.20
2018-07-29T22:46:42.242Z,23.20
2018-07-29T22:49:18.972Z,23.10
2018-07-29T22:51:55.508Z,23.10
2018-07-29T22:54:31.950Z,23.00
2018-07-29T22:57:08.329Z,22.90
2018-07-29T22:59:44.999Z,22.90
2018-07-29T23:02:24.931Z,22.90
2018-07-29T23:05:01.174Z,22.90
2018-07-29T23:07:37.487Z,22.90
2018-07-29T23:10:13.872Z,22.90
2018-07-29T23:12:50.292Z,22.80
2018-07-29T23:15:26.665Z,22.80
2018-07-29T23:18:03.131Z,22.80
2018-07-29T23:20:39.499Z,22.80
2018-07-29T23:23:15.914Z,22.70
2018-07-29T23:25:52.439Z,22.70
2018-07-29T23:28:28.856Z,22.60
2018-07-29T23:31:05.518Z,22.50
2018-07-29T23:33:41.988Z,22.50
2018-07-29T23:36:18.237Z,22.50
2018-07-29T23:38:54.593Z,22.40
2018-07-29T23:41:31.261Z,22.40
2018-07-29T23:44:07.842Z,22.40
2018-07-29T23:46:44.199Z,22.40
2018-07-29T23:49:20.629Z,22.30
2018-07-29T23:51:57.117Z,22.30
2018-07-29T23:54:33.552Z,22.20
2018-07-29T23:57:10.722Z,22.20
2018-07-29T23:59:47.136Z,22.20
